Nearby METAR Reports

 

LEXJ - Santander/Paraya, Spain
Distancia a la estación: ESE 6km
Actualizado: 10/12/2018 22:30
Despejado
Despejado
 Viento del ESE
Viento: ESE 6 km/h
Temperatura: 9°C
Rocío: 8°C
Humedad: 94%
Barómetro: 1027 hPa
Resumen: Despejado
Visibilidad: greater than 10 km
2018/12/10 21:30 LEXJ 102130Z 11003KT 060V190 CAVOK 09/08 Q1027
LEBB - Bilbao/Sondica, Spain
Distancia a la estación: ESE 80km
Actualizado: 10/12/2018 22:30
Nubes dispersas
Nubes dispersas
 Viento del SE
Viento: SE 6 km/h
Temperatura: 7°C
Rocío: 6°C
Humedad: 93%
Barómetro: 1028 hPa
Nubes: Nubes dispersas
Visibilidad: 10 km
Detalle Nubes: Nubes dispersas 1219 m
2018/12/10 21:30 LEBB 102130Z 13003KT 100V160 9999 FEW040 07/06 Q1028 NOSIG
 
LEZG - Zaragoza (mil/Ci, Spain
Distancia a la estación: NNE 176km
Actualizado: 10/12/2018 22:30
Despejado
Despejado
 Viento del ONO
Viento: ONO 13 km/h
Temperatura: 8°C
Sensación Térmica: 6°C
Rocío: 5°C
Humedad: 82%
Barómetro: 1027 hPa
Resumen: Despejado
Visibilidad: greater than 10 km
2018/12/10 21:30 LEZG 102130Z 29007KT CAVOK 08/05 Q1027
LEVT - Vitoria, Spain
Distancia a la estación: ESE 114km
Actualizado: 10/12/2018 22:30
Despejado
Despejado
 Viento del SSO
Viento: SSO 2 km/h
Temperatura: 2°C
Rocío: 1°C
Humedad: 93%
Barómetro: 1028 hPa
Resumen: Despejado
Visibilidad: greater than 10 km
2018/12/10 21:30 LEVT 102130Z 21001KT CAVOK 02/01 Q1028
 
LEBG - Burgos/Villafria, Spain
Distancia a la estación: S 122km
Actualizado: 10/12/2018 22:30
Despejado
Despejado
 Viento del NE
Viento: NE 7 km/h
Temperatura: 1°C
Sensación Térmica: -2°C
Rocío: 0°C
Humedad: 93%
Barómetro: 1027 hPa
Nubes: Despejado
Visibilidad: 10 km
2018/12/10 21:30 LEBG 102130Z AUTO 05004KT 9999 NCD 01/M00 Q1027
LELO - Logrono/Agoncill, Spain
Distancia a la estación: SE 169km
Actualizado: 10/12/2018 22:30
Despejado
Despejado
 Viento del SSO
Viento: SSO 6 km/h
Temperatura: 4°C
Rocío: 2°C
Humedad: 87%
Barómetro: 1028 hPa
Resumen: Despejado
Visibilidad: greater than 10 km
2018/12/10 21:30 LELO 102130Z 21003KT CAVOK 04/02 Q1028
 
LESO - San Sebastian/Fu, Spain
Distancia a la estación: E 169km
Actualizado: 10/12/2018 22:30
Despejado
Despejado
 Viento del varies
Viento: varies 4 km/h
Temperatura: 8°C
Rocío: 7°C
Humedad: 93%
Barómetro: 1029 hPa
Nubes: Despejado
Visibilidad: 7 km
2018/12/10 21:30 LESO 102130Z AUTO VRB02KT 7000 NCD 08/07 Q1029
LEAS - Asturias/Aviles, Spain
Distancia a la estación: O 172km
Actualizado: 10/12/2018 22:30
Despejado
Despejado
 Viento del SE
Viento: SE 6 km/h
Temperatura: 8°C
Rocío: 7°C
Humedad: 93%
Barómetro: 1026 hPa
Resumen: Despejado
Visibilidad: greater than 10 km
2018/12/10 21:30 LEAS 102130Z 13003KT 090V160 CAVOK 08/07 Q1026 NOSIG
 
LELN - Leon/Virgen Cami, Spain
Distancia a la estación: SO 174km
Actualizado: 10/12/2018 22:30
Despejado
Despejado
 Viento del NO
Viento: NO 6 km/h
Temperatura: -1°C
Rocío: -1°C
Humedad: 100%
Barómetro: 1027 hPa
Nubes: Despejado
Visibilidad: 9 km
2018/12/10 21:30 LELN 102130Z AUTO 31003KT 9000 NCD M01/M01 Q1027
LFBZ - Biarritz/Anglet, France
Distancia a la estación: E 191km
Actualizado: 10/12/2018 22:30
Despejado
Despejado
 Viento del E
Viento: E 7 km/h
Temperatura: 8°C
Sensación Térmica: 7°C
Rocío: 6°C
Humedad: 87%
Barómetro: 1028 hPa
Resumen: Despejado
Visibilidad: greater than 10 km
2018/12/10 21:30 LFBZ 102130Z AUTO 09004KT CAVOK 08/06 Q1028 TEMPO 4000 BR
 
LEPP - Pamplona/Noain, Spain
Distancia a la estación: ESE 199km
Actualizado: 10/12/2018 22:30
Despejado
Despejado
 Viento del ONO
Viento: ONO 7 km/h
Temperatura: 6°C
Sensación Térmica: 4°C
Rocío: 3°C
Humedad: 81%
Barómetro: 1027 hPa
Resumen: Despejado
Visibilidad: greater than 10 km
2018/12/10 21:30 LEPP 102130Z 29004KT CAVOK 06/03 Q1027
LEBL - Barcelona Airpor, Spain
Distancia a la estación: ESE 554km
Actualizado: 10/12/2018 22:30
Nubes dispersas
Nubes dispersas
 Viento del NO
Viento: NO 13 km/h
Temperatura: 9°C
Sensación Térmica: 7°C
Rocío: 6°C
Humedad: 82%
Barómetro: 1027 hPa
Nubes: Nubes dispersas
Visibilidad: 10 km
Detalle Nubes: Nubes dispersas 610 m
2018/12/10 21:30 LEBL 102130Z 32007KT 270V350 9999 FEW020 09/06 Q1027 NOSIG
 
LEMD - Madrid/Barajas, Spain
Distancia a la estación: S 325km
Actualizado: 10/12/2018 22:30
Despejado
Despejado
 Viento del NNO
Viento: NNO 4 km/h
Temperatura: 5°C
Rocío: 3°C
Humedad: 87%
Barómetro: 1027 hPa
Resumen: Despejado
Visibilidad: greater than 10 km
2018/12/10 21:30 LEMD 102130Z 33002KT CAVOK 05/03 Q1027 NOSIG
LPPT - Lisbon/Portela, Portugal
Distancia a la estación: SO 663km
Actualizado: 10/12/2018 22:30
Despejado
Despejado
 Viento del NE
Viento: NE 13 km/h
Temperatura: 14°C
Rocío: 10°C
Humedad: 77%
Barómetro: 1023 hPa
Resumen: Despejado
Visibilidad: greater than 10 km
2018/12/10 21:30 LPPT 102130Z 05007KT 340V070 CAVOK 14/10 Q1023
 
LECO - La Coruna/Alvedr, Spain
Distancia a la estación: O 349km
Actualizado: 10/12/2018 22:30
Despejado
Despejado
 Viento del S
Viento: S 13 km/h
Temperatura: 8°C
Sensación Térmica: 6°C
Rocío: 7°C
Humedad: 93%
Barómetro: 1023 hPa
Resumen: Despejado
Visibilidad: greater than 10 km
2018/12/10 21:30 LECO 102130Z 18007KT CAVOK 08/07 Q1023 NOSIG
LEST - Santiago/Labacol, Spain
Distancia a la estación: O 358km
Actualizado: 10/12/2018 22:30
Despejado
Despejado
 Viento del SE
Viento: SE 13 km/h
Temperatura: 11°C
Rocío: 2°C
Humedad: 54%
Barómetro: 1024 hPa
Resumen: Despejado
Visibilidad: greater than 10 km
2018/12/10 21:30 LEST 102130Z 13007KT CAVOK 11/02 Q1024 NOSIG